PRIVATE WETTERSTATION BILLIGHEIM-ALLFELD                       ZURCK
Wetterdaten: Mittwoch, 21.05.2014
Datum Zeit Temp. A. Temp. A. min Temp. A. max Feuchte A. Luftdruck Regen Wind Richtung Richtung Sonnenschein ET Solar Taupunkt Windchill Windben Empfang
21.05.2014 00:00 16,2 C 16,2 C 16,3 C 66 % 1012,1 hPa 0,0 l/m 0,0 km/h (0 Bft) N-NW 337 0 min 0,025 mm 0 W/m 9,8 C 16,2 C 1,6 km/h (1 Bft) 100 %
21.05.2014 00:10 16,0 C 16,0 C 16,2 C 67 % 1012,1 hPa 0,0 l/m 0,0 km/h (0 Bft) NO 45 0 min 0,000 mm 0 W/m 9,9 C 16,0 C 1,6 km/h (1 Bft) 78 %
21.05.2014 00:20 15,7 C 15,7 C 16,0 C 67 % 1012,1 hPa 0,0 l/m 0,0 km/h (0 Bft) NO 45 0 min 0,000 mm 0 W/m 9,6 C 15,7 C 1,6 km/h (1 Bft) 100 %
21.05.2014 00:30 15,5 C 15,5 C 15,7 C 69 % 1012,1 hPa 0,0 l/m 0,0 km/h (0 Bft) NO 45 0 min 0,000 mm 0 W/m 9,8 C 15,5 C 1,6 km/h (1 Bft) 100 %
21.05.2014 00:40 15,3 C 15,3 C 15,5 C 70 % 1012,2 hPa 0,0 l/m 0,0 km/h (0 Bft) NO 45 0 min 0,000 mm 0 W/m 9,9 C 15,3 C 1,6 km/h (1 Bft) 100 %
21.05.2014 00:50 15,1 C 15,1 C 15,2 C 70 % 1012,1 hPa 0,0 l/m 1,6 km/h (1 Bft) NO 45 0 min 0,000 mm 0 W/m 9,7 C 15,1 C 3,2 km/h (1 Bft) 100 %
21.05.2014 01:00 14,8 C 14,8 C 15,1 C 73 % 1012,2 hPa 0,0 l/m 0,0 km/h (0 Bft) N 0 0 min 0,025 mm 0 W/m 10,0 C 14,8 C 0,0 km/h (0 Bft) 100 %
21.05.2014 01:10 14,6 C 14,6 C 14,8 C 72 % 1012,2 hPa 0,0 l/m 0,0 km/h (0 Bft) N 0 0 min 0,000 mm 0 W/m 9,6 C 14,6 C 0,0 km/h (0 Bft) 100 %
21.05.2014 01:20 14,4 C 14,4 C 14,6 C 76 % 1012,2 hPa 0,0 l/m 0,0 km/h (0 Bft) N 0 0 min 0,000 mm 0 W/m 10,2 C 14,4 C 0,0 km/h (0 Bft) 100 %
21.05.2014 01:30 14,1 C 14,1 C 14,3 C 77 % 1012,3 hPa 0,0 l/m 0,0 km/h (0 Bft) NO 45 0 min 0,000 mm 0 W/m 10,1 C 14,1 C 3,2 km/h (1 Bft) 100 %
21.05.2014 01:40 13,7 C 13,7 C 14,1 C 78 % 1012,3 hPa 0,0 l/m 0,0 km/h (0 Bft) NO 45 0 min 0,000 mm 0 W/m 9,9 C 13,7 C 3,2 km/h (1 Bft) 100 %
21.05.2014 01:50 13,4 C 13,4 C 13,7 C 79 % 1012,3 hPa 0,0 l/m 0,0 km/h (0 Bft) NO 45 0 min 0,000 mm 0 W/m 9,8 C 13,4 C 1,6 km/h (1 Bft) 100 %
21.05.2014 02:00 13,1 C 13,1 C 13,4 C 80 % 1012,3 hPa 0,0 l/m 1,6 km/h (1 Bft) N-NO 22 0 min 0,025 mm 0 W/m 9,7 C 13,1 C 4,8 km/h (1 Bft) 100 %
21.05.2014 02:10 12,8 C 12,8 C 13,1 C 81 % 1012,3 hPa 0,0 l/m 0,0 km/h (0 Bft) N 360 0 min 0,000 mm 0 W/m 9,6 C 12,8 C 4,8 km/h (1 Bft) 100 %
21.05.2014 02:20 12,6 C 12,6 C 12,8 C 82 % 1012,2 hPa 0,0 l/m 0,0 km/h (0 Bft) N 360 0 min 0,000 mm 0 W/m 9,6 C 12,6 C 1,6 km/h (1 Bft) 100 %
21.05.2014 02:30 12,3 C 12,3 C 12,6 C 83 % 1012,2 hPa 0,0 l/m 0,0 km/h (0 Bft) N 360 0 min 0,000 mm 0 W/m 9,5 C 12,3 C 1,6 km/h (1 Bft) 100 %
21.05.2014 02:40 12,2 C 12,2 C 12,3 C 83 % 1012,1 hPa 0,0 l/m 0,0 km/h (0 Bft) N 360 0 min 0,000 mm 0 W/m 9,4 C 12,2 C 3,2 km/h (1 Bft) 100 %
21.05.2014 02:50 12,0 C 12,0 C 12,2 C 83 % 1012,1 hPa 0,0 l/m 0,0 km/h (0 Bft) N 360 0 min 0,000 mm 0 W/m 9,2 C 12,0 C 1,6 km/h (1 Bft) 100 %
21.05.2014 03:00 11,8 C 11,8 C 12,0 C 84 % 1012,1 hPa 0,0 l/m 0,0 km/h (0 Bft) N 360 0 min 0,025 mm 0 W/m 9,2 C 11,8 C 1,6 km/h (1 Bft) 100 %
21.05.2014 03:10 11,6 C 11,6 C 11,8 C 84 % 1012,1 hPa 0,0 l/m 0,0 km/h (0 Bft) N 360 0 min 0,000 mm 0 W/m 9,0 C 11,6 C 1,6 km/h (1 Bft) 100 %
21.05.2014 03:20 11,5 C 11,5 C 11,6 C 84 % 1012,1 hPa 0,0 l/m 0,0 km/h (0 Bft) N 360 0 min 0,000 mm 0 W/m 8,9 C 11,5 C 3,2 km/h (1 Bft) 100 %
21.05.2014 03:30 11,3 C 11,3 C 11,4 C 84 % 1012,2 hPa 0,0 l/m 0,0 km/h (0 Bft) N 0 0 min 0,000 mm 0 W/m 8,7 C 11,3 C 0,0 km/h (0 Bft) 100 %
21.05.2014 03:40 11,2 C 11,2 C 11,3 C 85 % 1012,1 hPa 0,0 l/m 0,0 km/h (0 Bft) N 360 0 min 0,000 mm 0 W/m 8,8 C 11,2 C 3,2 km/h (1 Bft) 100 %
21.05.2014 03:50 11,1 C 11,1 C 11,2 C 85 % 1012,2 hPa 0,0 l/m 1,6 km/h (1 Bft) N 360 0 min 0,000 mm 0 W/m 8,7 C 11,1 C 4,8 km/h (1 Bft) 100 %
21.05.2014 04:00 11,0 C 11,0 C 11,1 C 85 % 1012,3 hPa 0,0 l/m 0,0 km/h (0 Bft) N 360 0 min 0,000 mm 0 W/m 8,6 C 11,0 C 4,8 km/h (1 Bft) 100 %
21.05.2014 04:10 10,8 C 10,8 C 11,0 C 85 % 1012,5 hPa 0,0 l/m 0,0 km/h (0 Bft) N 360 0 min 0,000 mm 0 W/m 8,4 C 10,8 C 3,2 km/h (1 Bft) 100 %
21.05.2014 04:20 10,7 C 10,7 C 10,8 C 85 % 1012,6 hPa 0,0 l/m 0,0 km/h (0 Bft) N-NO 22 0 min 0,000 mm 0 W/m 8,3 C 10,7 C 4,8 km/h (1 Bft) 100 %
21.05.2014 04:30 10,6 C 10,6 C 10,7 C 86 % 1012,4 hPa 0,0 l/m 0,0 km/h (0 Bft) N-NO 22 0 min 0,000 mm 0 W/m 8,4 C 10,6 C 1,6 km/h (1 Bft) 100 %
21.05.2014 04:40 10,6 C 10,6 C 10,6 C 86 % 1012,5 hPa 0,0 l/m 0,0 km/h (0 Bft) N-NO 22 0 min 0,000 mm 0 W/m 8,4 C 10,6 C 3,2 km/h (1 Bft) 100 %
21.05.2014 04:50 10,5 C 10,5 C 10,6 C 86 % 1012,4 hPa 0,0 l/m 1,6 km/h (1 Bft) N-NW 337 0 min 0,000 mm 0 W/m 8,3 C 10,5 C 4,8 km/h (1 Bft) 100 %
21.05.2014 05:00 10,4 C 10,4 C 10,5 C 85 % 1012,6 hPa 0,0 l/m 1,6 km/h (1 Bft) N-NW 337 0 min 0,000 mm 0 W/m 8,0 C 10,4 C 6,4 km/h (2 Bft) 100 %
21.05.2014 05:10 10,2 C 10,2 C 10,4 C 86 % 1012,5 hPa 0,0 l/m 0,0 km/h (0 Bft) N-NW 337 0 min 0,000 mm 0 W/m 8,0 C 10,2 C 3,2 km/h (1 Bft) 100 %
21.05.2014 05:20 10,1 C 10,1 C 10,2 C 86 % 1012,5 hPa 0,0 l/m 0,0 km/h (0 Bft) N 0 0 min 0,000 mm 0 W/m 7,9 C 10,1 C 0,0 km/h (0 Bft) 100 %
21.05.2014 05:30 10,0 C 10,0 C 10,1 C 86 % 1012,5 hPa 0,0 l/m 0,0 km/h (0 Bft) N 360 0 min 0,000 mm 0 W/m 7,8 C 10,0 C 1,6 km/h (1 Bft) 100 %
21.05.2014 05:40 9,9 C 9,9 C 10,0 C 86 % 1012,8 hPa 0,0 l/m 0,0 km/h (0 Bft) N 360 0 min 0,000 mm 0 W/m 7,7 C 9,9 C 3,2 km/h (1 Bft) 100 %
21.05.2014 05:50 9,9 C 9,9 C 9,9 C 86 % 1012,9 hPa 0,0 l/m 1,6 km/h (1 Bft) N 360 0 min 0,000 mm 5 W/m 7,7 C 9,9 C 3,2 km/h (1 Bft) 100 %
21.05.2014 06:00 9,9 C 9,8 C 9,9 C 86 % 1012,9 hPa 0,0 l/m 0,0 km/h (0 Bft) N 360 0 min 0,000 mm 11 W/m 7,7 C 9,9 C 3,2 km/h (1 Bft) 100 %
21.05.2014 06:10 10,1 C 9,9 C 10,1 C 86 % 1012,9 hPa 0,0 l/m 0,0 km/h (0 Bft) N 0 0 min 0,000 mm 16 W/m 7,9 C 10,1 C 0,0 km/h (0 Bft) 100 %
21.05.2014 06:20 10,1 C 10,1 C 10,1 C 86 % 1012,9 hPa 0,0 l/m 0,0 km/h (0 Bft) N-NO 22 0 min 0,000 mm 23 W/m 7,9 C 10,1 C 3,2 km/h (1 Bft) 100 %
21.05.2014 06:30 10,2 C 10,1 C 10,2 C 86 % 1013,0 hPa 0,0 l/m 0,0 km/h (0 Bft) N-NO 22 0 min 0,000 mm 32 W/m 8,0 C 10,2 C 3,2 km/h (1 Bft) 100 %
21.05.2014 06:40 10,2 C 10,1 C 10,2 C 86 % 1012,9 hPa 0,0 l/m 0,0 km/h (0 Bft) N 0 0 min 0,000 mm 33 W/m 8,0 C 10,2 C 0,0 km/h (0 Bft) 100 %
21.05.2014 06:50 10,2 C 10,2 C 10,2 C 86 % 1013,0 hPa 0,0 l/m 0,0 km/h (0 Bft) NO 45 0 min 0,000 mm 30 W/m 8,0 C 10,2 C 1,6 km/h (1 Bft) 100 %
21.05.2014 07:00 10,3 C 10,2 C 10,3 C 87 % 1012,9 hPa 0,0 l/m 0,0 km/h (0 Bft) NO 45 0 min 0,025 mm 33 W/m 8,2 C 10,3 C 1,6 km/h (1 Bft) 100 %
21.05.2014 07:10 10,4 C 10,3 C 10,4 C 87 % 1012,9 hPa 0,0 l/m 0,0 km/h (0 Bft) N 0 0 min 0,000 mm 42 W/m 8,3 C 10,4 C 0,0 km/h (0 Bft) 100 %
21.05.2014 07:20 10,8 C 10,4 C 10,8 C 87 % 1012,8 hPa 0,0 l/m 1,6 km/h (1 Bft) NO 45 0 min 0,000 mm 47 W/m 8,7 C 10,8 C 4,8 km/h (1 Bft) 100 %
21.05.2014 07:30 11,1 C 10,8 C 11,1 C 87 % 1012,8 hPa 0,0 l/m 1,6 km/h (1 Bft) N-NW 337 0 min 0,000 mm 60 W/m 9,0 C 11,1 C 4,8 km/h (1 Bft) 100 %
21.05.2014 07:40 11,3 C 11,1 C 11,3 C 87 % 1012,8 hPa 0,0 l/m 0,0 km/h (0 Bft) N 0 0 min 0,000 mm 83 W/m 9,2 C 11,3 C 0,0 km/h (0 Bft) 100 %
21.05.2014 07:50 11,6 C 11,3 C 11,6 C 87 % 1012,9 hPa 0,0 l/m 0,0 km/h (0 Bft) N 0 0 min 0,000 mm 90 W/m 9,5 C 11,6 C 0,0 km/h (0 Bft) 99 %
21.05.2014 08:00 12,2 C 11,6 C 12,2 C 86 % 1013,0 hPa 0,0 l/m 0,0 km/h (0 Bft) N 0 0 min 0,025 mm 111 W/m 9,9 C 12,2 C 0,0 km/h (0 Bft) 87 %
21.05.2014 08:10 12,8 C 12,2 C 12,8 C 85 % 1012,9 hPa 0,0 l/m 0,0 km/h (0 Bft) N 0 10 min 0,000 mm 227 W/m 10,3 C 12,8 C 0,0 km/h (0 Bft) 100 %
21.05.2014 08:20 13,7 C 12,8 C 13,7 C 85 % 1012,9 hPa 0,0 l/m 0,0 km/h (0 Bft) N 0 10 min 0,000 mm 383 W/m 11,2 C 13,7 C 0,0 km/h (0 Bft) 100 %
21.05.2014 08:30 14,7 C 13,7 C 14,7 C 83 % 1013,0 hPa 0,0 l/m 0,0 km/h (0 Bft) N 0 10 min 0,000 mm 376 W/m 11,8 C 14,7 C 0,0 km/h (0 Bft) 97 %
21.05.2014 08:40 15,9 C 14,8 C 15,9 C 79 % 1012,9 hPa 0,0 l/m 0,0 km/h (0 Bft) N-NW 337 10 min 0,000 mm 432 W/m 12,3 C 15,9 C 1,6 km/h (1 Bft) 98 %
21.05.2014 08:50 16,9 C 15,9 C 16,9 C 76 % 1012,9 hPa 0,0 l/m 0,0 km/h (0 Bft) N-NW 337 10 min 0,000 mm 446 W/m 12,6 C 16,9 C 3,2 km/h (1 Bft) 98 %
21.05.2014 09:00 17,8 C 16,9 C 17,8 C 73 % 1012,9 hPa 0,0 l/m 0,0 km/h (0 Bft) N-NW 337 10 min 0,178 mm 506 W/m 12,9 C 17,8 C 3,2 km/h (1 Bft) 98 %
21.05.2014 09:10 18,4 C 17,8 C 18,4 C 72 % 1012,9 hPa 0,0 l/m 0,0 km/h (0 Bft) N 360 10 min 0,000 mm 455 W/m 13,3 C 18,4 C 1,6 km/h (1 Bft) 98 %
21.05.2014 09:20 18,8 C 18,4 C 18,8 C 71 % 1012,8 hPa 0,0 l/m 0,0 km/h (0 Bft) N-NO 22 10 min 0,000 mm 408 W/m 13,4 C 18,8 C 3,2 km/h (1 Bft) 97 %
21.05.2014 09:30 19,3 C 18,8 C 19,3 C 70 % 1012,8 hPa 0,0 l/m 0,0 km/h (0 Bft) N-NO 22 10 min 0,000 mm 478 W/m 13,7 C 19,3 C 3,2 km/h (1 Bft) 97 %
21.05.2014 09:40 20,1 C 19,3 C 20,1 C 69 % 1012,7 hPa 0,0 l/m 0,0 km/h (0 Bft) N 360 10 min 0,000 mm 617 W/m 14,2 C 20,1 C 3,2 km/h (1 Bft) 97 %
21.05.2014 09:50 20,5 C 20,1 C 20,5 C 65 % 1012,7 hPa 0,0 l/m 0,0 km/h (0 Bft) N 360 10 min 0,000 mm 399 W/m 13,7 C 20,5 C 3,2 km/h (1 Bft) 98 %
21.05.2014 10:00 20,7 C 20,5 C 20,7 C 67 % 1012,7 hPa 0,0 l/m 0,0 km/h (0 Bft) N 0 10 min 0,229 mm 411 W/m 14,3 C 20,7 C 0,0 km/h (0 Bft) 97 %
21.05.2014 10:10 20,7 C 20,6 C 20,7 C 64 % 1012,7 hPa 0,0 l/m 0,0 km/h (0 Bft) NO 45 10 min 0,000 mm 499 W/m 13,6 C 20,7 C 4,8 km/h (1 Bft) 97 %
21.05.2014 10:20 21,1 C 20,7 C 21,1 C 62 % 1012,6 hPa 0,0 l/m 0,0 km/h (0 Bft) N-NO 22 10 min 0,000 mm 782 W/m 13,5 C 21,1 C 1,6 km/h (1 Bft) 97 %
21.05.2014 10:30 21,7 C 21,1 C 21,7 C 60 % 1012,4 hPa 0,0 l/m 0,0 km/h (0 Bft) N-NO 22 10 min 0,000 mm 756 W/m 13,6 C 21,7 C 6,4 km/h (2 Bft) 97 %
21.05.2014 10:40 22,2 C 21,7 C 22,2 C 62 % 1012,3 hPa 0,0 l/m 0,0 km/h (0 Bft) SO 135 10 min 0,000 mm 744 W/m 14,6 C 22,2 C 4,8 km/h (1 Bft) 98 %
21.05.2014 10:50 22,8 C 22,2 C 22,8 C 60 % 1012,3 hPa 0,0 l/m 0,0 km/h (0 Bft) O 90 10 min 0,000 mm 784 W/m 14,6 C 22,8 C 6,4 km/h (2 Bft) 97 %
21.05.2014 11:00 23,4 C 22,8 C 23,4 C 56 % 1012,3 hPa 0,0 l/m 1,6 km/h (1 Bft) O-SO 112 10 min 0,381 mm 809 W/m 14,1 C 23,4 C 6,4 km/h (2 Bft) 98 %
21.05.2014 11:10 24,1 C 23,4 C 24,1 C 53 % 1012,1 hPa 0,0 l/m 0,0 km/h (0 Bft) SO 135 10 min 0,000 mm 800 W/m 13,9 C 24,1 C 9,7 km/h (2 Bft) 98 %
21.05.2014 11:20 24,6 C 24,1 C 24,6 C 51 % 1012,0 hPa 0,0 l/m 3,2 km/h (1 Bft) O-SO 112 10 min 0,000 mm 798 W/m 13,8 C 24,6 C 9,7 km/h (2 Bft) 97 %
21.05.2014 11:30 24,9 C 24,6 C 24,9 C 50 % 1011,9 hPa 0,0 l/m 3,2 km/h (1 Bft) SO 135 10 min 0,000 mm 814 W/m 13,7 C 24,9 C 14,5 km/h (3 Bft) 98 %
21.05.2014 11:40 25,3 C 24,9 C 25,3 C 51 % 1011,8 hPa 0,0 l/m 0,0 km/h (0 Bft) O 90 10 min 0,000 mm 817 W/m 14,4 C 25,3 C 8,0 km/h (2 Bft) 97 %
21.05.2014 11:50 25,7 C 25,3 C 25,7 C 48 % 1011,6 hPa 0,0 l/m 1,6 km/h (1 Bft) O 90 10 min 0,000 mm 835 W/m 13,9 C 25,7 C 9,7 km/h (2 Bft) 98 %
21.05.2014 12:00 26,1 C 25,7 C 26,1 C 47 % 1011,5 hPa 0,0 l/m 1,6 km/h (1 Bft) O-SO 112 10 min 0,508 mm 874 W/m 13,9 C 26,1 C 11,3 km/h (2 Bft) 96 %
21.05.2014 12:10 26,4 C 26,1 C 26,4 C 47 % 1011,4 hPa 0,0 l/m 1,6 km/h (1 Bft) SO 135 10 min 0,000 mm 888 W/m 14,2 C 26,4 C 8,0 km/h (2 Bft) 98 %
21.05.2014 12:20 26,4 C 26,4 C 26,5 C 41 % 1011,2 hPa 0,0 l/m 4,8 km/h (1 Bft) SO 135 10 min 0,000 mm 905 W/m 12,1 C 26,4 C 19,3 km/h (3 Bft) 98 %
21.05.2014 12:30 26,2 C 26,2 C 26,4 C 37 % 1011,1 hPa 0,0 l/m 4,8 km/h (1 Bft) O-SO 112 10 min 0,000 mm 868 W/m 10,3 C 26,2 C 19,3 km/h (3 Bft) 99 %
21.05.2014 12:40 26,2 C 26,2 C 26,2 C 42 % 1011,1 hPa 0,0 l/m 4,8 km/h (1 Bft) SO 135 10 min 0,000 mm 844 W/m 12,3 C 26,2 C 17,7 km/h (3 Bft) 99 %
21.05.2014 12:50 26,1 C 26,0 C 26,2 C 43 % 1011,2 hPa 0,0 l/m 3,2 km/h (1 Bft) SO 135 10 min 0,000 mm 870 W/m 12,5 C 26,1 C 20,9 km/h (4 Bft) 98 %
21.05.2014 13:00 26,3 C 26,1 C 26,3 C 39 % 1010,9 hPa 0,0 l/m 6,4 km/h (2 Bft) O-SO 112 10 min 0,533 mm 942 W/m 11,2 C 26,3 C 24,1 km/h (4 Bft) 100 %
21.05.2014 13:10 26,2 C 26,1 C 26,3 C 44 % 1010,9 hPa 0,0 l/m 6,4 km/h (2 Bft) SO 135 10 min 0,000 mm 854 W/m 13,0 C 26,2 C 24,1 km/h (4 Bft) 100 %
21.05.2014 13:20 26,5 C 26,2 C 26,5 C 44 % 1010,6 hPa 0,0 l/m 3,2 km/h (1 Bft) O-SO 112 10 min 0,000 mm 872 W/m 13,2 C 26,5 C 9,7 km/h (2 Bft) 100 %
21.05.2014 13:30 26,9 C 26,5 C 26,9 C 40 % 1010,5 hPa 0,0 l/m 1,6 km/h (1 Bft) O-SO 112 10 min 0,000 mm 965 W/m 12,1 C 26,9 C 11,3 km/h (2 Bft) 100 %
21.05.2014 13:40 26,9 C 26,9 C 27,2 C 37 % 1010,5 hPa 0,0 l/m 4,8 km/h (1 Bft) O-SO 112 10 min 0,000 mm 761 W/m 11,0 C 26,9 C 19,3 km/h (3 Bft) 100 %
21.05.2014 13:50 26,6 C 26,6 C 26,9 C 38 % 1010,4 hPa 0,0 l/m 6,4 km/h (2 Bft) O-SO 112 10 min 0,000 mm 960 W/m 11,1 C 26,6 C 22,5 km/h (4 Bft) 100 %
21.05.2014 14:00 26,7 C 26,6 C 26,7 C 40 % 1010,5 hPa 0,0 l/m 6,4 km/h (2 Bft) SO 135 10 min 0,533 mm 891 W/m 12,0 C 26,7 C 27,4 km/h (4 Bft) 100 %
21.05.2014 14:10 26,7 C 26,7 C 26,8 C 39 % 1010,3 hPa 0,0 l/m 6,4 km/h (2 Bft) SO 135 10 min 0,000 mm 833 W/m 11,6 C 26,7 C 29,0 km/h (5 Bft) 100 %
21.05.2014 14:20 26,8 C 26,7 C 26,8 C 38 % 1010,1 hPa 0,0 l/m 4,8 km/h (1 Bft) SO 135 10 min 0,000 mm 752 W/m 11,3 C 26,8 C 19,3 km/h (3 Bft) 100 %
21.05.2014 14:30 26,8 C 26,8 C 26,9 C 36 % 1010,1 hPa 0,0 l/m 4,8 km/h (1 Bft) O-SO 112 10 min 0,000 mm 738 W/m 10,5 C 26,8 C 16,1 km/h (3 Bft) 100 %
21.05.2014 14:40 26,9 C 26,8 C 26,9 C 38 % 1010,1 hPa 0,0 l/m 4,8 km/h (1 Bft) O-SO 112 10 min 0,000 mm 800 W/m 11,4 C 26,9 C 16,1 km/h (3 Bft) 100 %
21.05.2014 14:50 27,0 C 26,9 C 27,1 C 43 % 1010,0 hPa 0,0 l/m 4,8 km/h (1 Bft) SO 135 10 min 0,000 mm 635 W/m 13,3 C 27,0 C 17,7 km/h (3 Bft) 99 %
21.05.2014 15:00 27,0 C 27,0 C 27,1 C 39 % 1010,0 hPa 0,0 l/m 1,6 km/h (1 Bft) O 90 10 min 0,457 mm 552 W/m 11,8 C 27,0 C 6,4 km/h (2 Bft) 100 %
21.05.2014 15:10 26,8 C 26,8 C 27,0 C 39 % 1009,9 hPa 0,0 l/m 3,2 km/h (1 Bft) SO 135 10 min 0,000 mm 657 W/m 11,7 C 26,8 C 17,7 km/h (3 Bft) 100 %
21.05.2014 15:20 26,8 C 26,8 C 26,9 C 39 % 1009,6 hPa 0,0 l/m 3,2 km/h (1 Bft) SO 135 10 min 0,000 mm 615 W/m 11,7 C 26,8 C 14,5 km/h (3 Bft) 100 %
21.05.2014 15:30 26,6 C 26,6 C 26,8 C 43 % 1009,6 hPa 0,0 l/m 3,2 km/h (1 Bft) SO 135 10 min 0,000 mm 504 W/m 13,0 C 26,6 C 16,1 km/h (3 Bft) 100 %
21.05.2014 15:40 26,8 C 26,6 C 26,8 C 41 % 1009,4 hPa 0,0 l/m 3,2 km/h (1 Bft) O-SO 112 10 min 0,000 mm 701 W/m 12,4 C 26,8 C 19,3 km/h (3 Bft) 100 %
21.05.2014 15:50 27,1 C 26,8 C 27,1 C 40 % 1009,4 hPa 0,0 l/m 1,6 km/h (1 Bft) O 90 10 min 0,000 mm 726 W/m 12,3 C 27,1 C 11,3 km/h (2 Bft) 100 %
21.05.2014 16:00 27,0 C 27,0 C 27,1 C 42 % 1009,3 hPa 0,0 l/m 3,2 km/h (1 Bft) SO 135 10 min 0,356 mm 429 W/m 13,0 C 27,0 C 12,9 km/h (3 Bft) 100 %
21.05.2014 16:10 26,8 C 26,8 C 27,0 C 43 % 1009,2 hPa 0,0 l/m 1,6 km/h (1 Bft) SO 135 10 min 0,000 mm 501 W/m 13,2 C 26,8 C 11,3 km/h (2 Bft) 100 %
21.05.2014 16:20 27,0 C 26,8 C 27,0 C 43 % 1009,1 hPa 0,0 l/m 0,0 km/h (0 Bft) S-SO 157 10 min 0,000 mm 650 W/m 13,3 C 27,0 C 9,7 km/h (2 Bft) 100 %
21.05.2014 16:30 27,2 C 27,0 C 27,3 C 40 % 1009,1 hPa 0,0 l/m 1,6 km/h (1 Bft) O-SO 112 10 min 0,000 mm 691 W/m 12,4 C 27,2 C 11,3 km/h (2 Bft) 100 %
21.05.2014 16:40 27,2 C 27,0 C 27,3 C 43 % 1008,9 hPa 0,0 l/m 0,3 km/h (0 Bft) O-SO 109 10 min 0,000 mm 605 W/m 13,5 C 27,2 C 3,2 km/h (1 Bft) 99 %
21.05.2014 16:50 27,2 C 27,2 C 27,2 C 47 % 1008,9 hPa 0,0 l/m 1,3 km/h (1 Bft) O-SO 103 10 min 0,000 mm 575 W/m 14,9 C 27,2 C 9,7 km/h (2 Bft) 100 %
21.05.2014 17:00 27,2 C 27,2 C 27,3 C 42 % 1008,8 hPa 0,0 l/m 3,3 km/h (1 Bft) S-SO 148 10 min 0,000 mm 229 W/m 13,2 C 27,2 C 17,7 km/h (3 Bft) 100 %
21.05.2014 17:10 27,3 C 27,2 C 27,3 C 42 % 1008,9 hPa 0,0 l/m 1,9 km/h (1 Bft) S 175 10 min 0,307 mm 156 W/m 13,2 C 27,3 C 9,7 km/h (2 Bft) 99 %
21.05.2014 17:20 27,4 C 27,3 C 27,4 C 41 % 1008,8 hPa 0,0 l/m 3,2 km/h (1 Bft) O-NO 63 10 min 0,000 mm 371 W/m 13,0 C 27,4 C 11,3 km/h (2 Bft) 100 %
21.05.2014 17:30 27,2 C 27,2 C 27,4 C 43 % 1008,8 hPa 0,0 l/m 3,1 km/h (1 Bft) O 88 10 min 0,000 mm 165 W/m 13,5 C 27,2 C 17,7 km/h (3 Bft) 99 %
21.05.2014 17:40 27,0 C 27,0 C 27,2 C 40 % 1008,6 hPa 0,0 l/m 2,3 km/h (1 Bft) SO 140 10 min 0,000 mm 264 W/m 12,2 C 27,0 C 11,3 km/h (2 Bft) 100 %
21.05.2014 17:50 26,9 C 26,9 C 27,0 C 39 % 1008,6 hPa 0,0 l/m 1,4 km/h (1 Bft) O 94 10 min 0,000 mm 503 W/m 11,8 C 26,9 C 11,3 km/h (2 Bft) 99 %
21.05.2014 18:00 27,1 C 26,9 C 27,1 C 39 % 1008,4 hPa 0,0 l/m 3,8 km/h (1 Bft) SO 130 10 min 0,000 mm 304 W/m 11,9 C 27,1 C 16,1 km/h (3 Bft) 99 %
21.05.2014 18:10 26,9 C 26,9 C 27,1 C 38 % 1008,3 hPa 0,0 l/m 5,1 km/h (1 Bft) O-SO 122 10 min 0,203 mm 251 W/m 11,4 C 26,9 C 16,1 km/h (3 Bft) 100 %
21.05.2014 18:20 26,7 C 26,7 C 26,9 C 38 % 1008,2 hPa 0,0 l/m 3,6 km/h (1 Bft) O 98 0 min 0,000 mm 123 W/m 11,2 C 26,7 C 11,3 km/h (2 Bft) 100 %
21.05.2014 18:30 26,4 C 26,4 C 26,7 C 43 % 1008,1 hPa 0,0 l/m 0,8 km/h (0 Bft) O 95 0 min 0,000 mm 132 W/m 12,8 C 26,4 C 8,0 km/h (2 Bft) 99 %
21.05.2014 18:40 26,0 C 26,0 C 26,4 C 43 % 1008,0 hPa 0,0 l/m 0,3 km/h (0 Bft) O 81 0 min 0,000 mm 132 W/m 12,4 C 26,0 C 6,4 km/h (2 Bft) 100 %
21.05.2014 18:50 25,6 C 25,6 C 26,0 C 44 % 1008,1 hPa 0,0 l/m 0,2 km/h (0 Bft) O-SO 105 0 min 0,000 mm 151 W/m 12,4 C 25,6 C 8,0 km/h (2 Bft) 100 %
21.05.2014 19:00 25,3 C 25,3 C 25,6 C 44 % 1008,0 hPa 0,0 l/m 0,2 km/h (0 Bft) SW 217 0 min 0,000 mm 127 W/m 12,2 C 25,3 C 4,8 km/h (1 Bft) 99 %
21.05.2014 19:10 25,0 C 25,0 C 25,3 C 45 % 1008,0 hPa 0,0 l/m 0,2 km/h (0 Bft) O-SO 113 0 min 0,127 mm 105 W/m 12,2 C 25,0 C 8,0 km/h (2 Bft) 100 %
21.05.2014 19:20 24,8 C 24,7 C 25,0 C 44 % 1008,0 hPa 0,0 l/m 0,4 km/h (0 Bft) O-NO 69 0 min 0,000 mm 100 W/m 11,7 C 24,8 C 9,7 km/h (2 Bft) 100 %
21.05.2014 19:30 24,6 C 24,6 C 24,8 C 46 % 1007,8 hPa 0,0 l/m 0,2 km/h (0 Bft) NO 38 0 min 0,000 mm 83 W/m 12,2 C 24,6 C 3,2 km/h (1 Bft) 100 %
21.05.2014 19:40 24,3 C 24,3 C 24,6 C 46 % 1007,8 hPa 0,0 l/m 0,0 km/h (0 Bft) O 98 0 min 0,000 mm 81 W/m 11,9 C 24,3 C 1,6 km/h (1 Bft) 100 %
21.05.2014 19:50 24,2 C 24,2 C 24,3 C 46 % 1007,5 hPa 0,0 l/m 0,0 km/h (0 Bft) O 96 0 min 0,000 mm 72 W/m 11,8 C 24,2 C 1,6 km/h (1 Bft) 100 %
21.05.2014 20:00 24,0 C 24,0 C 24,2 C 47 % 1007,5 hPa 0,0 l/m 0,2 km/h (0 Bft) NO 56 0 min 0,000 mm 54 W/m 12,0 C 24,0 C 4,8 km/h (1 Bft) 100 %
21.05.2014 20:10 23,8 C 23,8 C 24,0 C 48 % 1007,4 hPa 0,0 l/m 0,0 km/h (0 Bft) O-NO 59 0 min 0,076 mm 44 W/m 12,1 C 23,8 C 1,6 km/h (1 Bft) 100 %
21.05.2014 20:20 23,5 C 23,5 C 23,8 C 48 % 1007,4 hPa 0,0 l/m 0,0 km/h (0 Bft) O-NO 63 0 min 0,001 mm 35 W/m 11,8 C 23,5 C 1,6 km/h (1 Bft) 100 %
21.05.2014 20:30 23,2 C 23,2 C 23,5 C 49 % 1007,4 hPa 0,0 l/m 0,3 km/h (0 Bft) NO 49 0 min 0,000 mm 23 W/m 11,9 C 23,2 C 3,2 km/h (1 Bft) 100 %
21.05.2014 20:40 22,8 C 22,8 C 23,2 C 50 % 1007,3 hPa 0,0 l/m 0,2 km/h (0 Bft) N-NO 32 0 min 0,000 mm 16 W/m 11,8 C 22,8 C 3,2 km/h (1 Bft) 100 %
21.05.2014 20:50 22,6 C 22,6 C 22,8 C 50 % 1007,3 hPa 0,0 l/m 0,2 km/h (0 Bft) O-NO 67 0 min 0,000 mm 9 W/m 11,6 C 22,6 C 3,2 km/h (1 Bft) 100 %
21.05.2014 21:00 22,3 C 22,3 C 22,6 C 51 % 1007,3 hPa 0,0 l/m 0,2 km/h (0 Bft) O-SO 103 0 min 0,000 mm 0 W/m 11,7 C 22,3 C 4,8 km/h (1 Bft) 100 %
21.05.2014 21:10 22,1 C 22,0 C 22,3 C 52 % 1007,3 hPa 0,0 l/m 0,0 km/h (0 Bft) O 90 0 min 0,000 mm 0 W/m 11,8 C 22,1 C 6,4 km/h (2 Bft) 99 %
21.05.2014 21:20 21,9 C 21,9 C 22,0 C 52 % 1007,4 hPa 0,0 l/m 0,0 km/h (0 Bft) O-SO 112 0 min 0,000 mm 0 W/m 11,6 C 21,9 C 4,8 km/h (1 Bft) 98 %
21.05.2014 21:30 21,7 C 21,7 C 21,9 C 53 % 1007,3 hPa 0,0 l/m 0,0 km/h (0 Bft) O-SO 112 0 min 0,000 mm 0 W/m 11,7 C 21,7 C 9,7 km/h (2 Bft) 99 %
21.05.2014 21:40 21,5 C 21,5 C 21,7 C 54 % 1007,2 hPa 0,0 l/m 0,0 km/h (0 Bft) N-NO 22 0 min 0,000 mm 0 W/m 11,8 C 21,5 C 6,4 km/h (2 Bft) 100 %
21.05.2014 21:50 21,4 C 21,4 C 21,5 C 54 % 1007,2 hPa 0,0 l/m 0,0 km/h (0 Bft) N 360 0 min 0,000 mm 0 W/m 11,7 C 21,4 C 3,2 km/h (1 Bft) 100 %
21.05.2014 22:00 21,3 C 21,3 C 21,4 C 55 % 1007,3 hPa 0,0 l/m 0,0 km/h (0 Bft) O 90 0 min 0,025 mm 0 W/m 11,9 C 21,3 C 6,4 km/h (2 Bft) 100 %
21.05.2014 22:10 21,2 C 21,2 C 21,3 C 55 % 1007,3 hPa 0,0 l/m 0,0 km/h (0 Bft) N-NO 22 0 min 0,000 mm 0 W/m 11,8 C 21,2 C 4,8 km/h (1 Bft) 100 %
21.05.2014 22:20 21,0 C 21,0 C 21,2 C 55 % 1007,4 hPa 0,0 l/m 0,0 km/h (0 Bft) N 360 0 min 0,000 mm 0 W/m 11,6 C 21,0 C 3,2 km/h (1 Bft) 98 %
21.05.2014 22:30 20,9 C 20,9 C 21,0 C 56 % 1007,5 hPa 0,0 l/m 0,0 km/h (0 Bft) O 90 0 min 0,000 mm 0 W/m 11,8 C 20,9 C 6,4 km/h (2 Bft) 98 %
21.05.2014 22:40 20,7 C 20,7 C 20,9 C 57 % 1007,4 hPa 0,0 l/m 0,0 km/h (0 Bft) O 90 0 min 0,000 mm 0 W/m 11,9 C 20,7 C 8,0 km/h (2 Bft) 96 %
21.05.2014 22:50 20,6 C 20,6 C 20,7 C 59 % 1007,5 hPa 0,0 l/m 0,0 km/h (0 Bft) NO 45 0 min 0,000 mm 0 W/m 12,3 C 20,6 C 6,4 km/h (2 Bft) 98 %
21.05.2014 23:00 20,4 C 20,4 C 20,6 C 58 % 1007,2 hPa 0,0 l/m 0,0 km/h (0 Bft) O-NO 67 0 min 0,051 mm 0 W/m 11,9 C 20,4 C 6,4 km/h (2 Bft) 97 %
21.05.2014 23:10 20,3 C 20,3 C 20,4 C 58 % 1007,1 hPa 0,0 l/m 0,0 km/h (0 Bft) N 360 0 min 0,000 mm 0 W/m 11,8 C 20,3 C 8,0 km/h (2 Bft) 98 %
21.05.2014 23:20 20,3 C 20,3 C 20,3 C 58 % 1007,0 hPa 0,0 l/m 1,6 km/h (1 Bft) SO 135 0 min 0,000 mm 0 W/m 11,8 C 20,3 C 8,0 km/h (2 Bft) 97 %
21.05.2014 23:30 20,2 C 20,2 C 20,3 C 58 % 1006,6 hPa 0,0 l/m 1,6 km/h (1 Bft) SO 135 0 min 0,000 mm 0 W/m 11,7 C 20,2 C 9,7 km/h (2 Bft) 97 %
21.05.2014 23:40 20,2 C 20,2 C 20,2 C 59 % 1006,3 hPa 0,0 l/m 3,2 km/h (1 Bft) O 90 0 min 0,000 mm 0 W/m 11,9 C 20,2 C 14,5 km/h (3 Bft) 98 %
21.05.2014 23:50 20,1 C 20,1 C 20,2 C 58 % 1006,2 hPa 0,0 l/m 1,6 km/h (1 Bft) O 90 0 min 0,000 mm 0 W/m 11,6 C 20,1 C 14,5 km/h (3 Bft) 97 %
_ Min-Zeit 06:00 06:00 05:50 14:30 23:50 - 00:00 - - - - - 05:40 05:40 01:00 00:10
Minimum _ 9,8 C 9,8 C 9,9 C 36 % 1006,2 hPa - 0,0 km/h (0 Bft) - - - - - 7,7 C 9,9 C 0,0 km/h (0 Bft) 78 %
_ Max-Zeit 17:20 17:20 17:20 07:00 06:30 00:00 13:00 - - 08:10 13:00 13:30 16:50 17:20 14:10 00:00
Maximum _ 27,4 C 27,3 C 27,4 C 87 % 1013,0 hPa 0,0 l/m 6,4 km/h
O-SO (2 Bft)
- - 10 min 0,533 mm 965 W/m 14,9 C 27,4 C 29,0 km/h
SO (5 Bft)
100 %
Durchschnitt _ 19,7 C 19,6 C 19,8 C 61 % 1010,6 hPa #0,0 l/m 1,2 km/h (1 Bft) SO - #10:10 h #4,115 mm 442 W/m 11,2 C 19,7 C 7,1 km/h (2 Bft) 99 %
PRIVATE WETTERSTATION BILLIGHEIM-ALLFELD - www.neckar-odenwald-wetter.de - Holger Sonntag